Terminal Aerodrome Forecast
Issued by NWS Mt. Holly, NJ

Home | Current Version | Previous Version | Text Only | Print | Product List | Glossary On
Versions: 1 2 3 4 5 6 7 8 9 10 11 12 13 14 15 16 17 18 19 20 21 22 23 24 25 26 27 28 29
000
FTUS41 KPHI 212000 AAA
TAFPHL
TAF AMD
KPHL 212057Z 2121/2224 14005KT P6SM FEW025 BKN200
     FM220400 27007KT P6SM SCT050
     FM221300 29012G20KT P6SM FEW050
     FM221700 31014G22KT P6SM FEW050=

USA.gov is the U.S. government's official web portal to all federal, state and local government web resources and services.